createdAt,value
2019-04-22T00:00:30.774Z,12.07
2019-04-22T00:02:59.835Z,12.03
2019-04-22T00:05:44.356Z,11.99
2019-04-22T00:08:19.961Z,11.96
2019-04-22T00:10:55.406Z,11.92
2019-04-22T00:13:27.599Z,11.89
2019-04-22T00:15:41.773Z,11.86
2019-04-22T00:18:19.923Z,11.84
2019-04-22T00:20:52.105Z,11.83
2019-04-22T00:23:18.685Z,11.81
2019-04-22T00:25:57.289Z,11.80
2019-04-22T00:28:29.188Z,11.80
2019-04-22T00:30:48.443Z,11.71
2019-04-22T00:33:25.539Z,11.71
2019-04-22T00:35:52.613Z,11.68
2019-04-22T00:38:25.099Z,11.72
2019-04-22T00:40:56.304Z,11.74
2019-04-22T00:43:28.748Z,11.72
2019-04-22T00:45:48.124Z,11.69
2019-04-22T00:51:01.730Z,11.62
2019-04-22T00:56:08.118Z,11.59
2019-04-22T00:58:37.886Z,11.60
2019-04-22T01:01:09.031Z,11.60
2019-04-22T01:03:44.462Z,11.59
2019-04-22T01:06:14.575Z,11.59
2019-04-22T01:08:39.056Z,11.56
2019-04-22T01:11:12.661Z,11.53
2019-04-22T01:13:34.765Z,11.52
2019-04-22T01:16:11.166Z,11.50
2019-04-22T01:18:36.226Z,11.51
2019-04-22T01:23:34.665Z,11.44
2019-04-22T01:26:00.739Z,11.43
2019-04-22T01:28:27.611Z,11.42
2019-04-22T01:30:51.653Z,11.42
2019-04-22T01:33:21.572Z,11.30
2019-04-22T01:36:04.640Z,11.30
2019-04-22T01:38:31.424Z,11.33
2019-04-22T01:41:16.406Z,11.29
2019-04-22T01:43:46.083Z,11.28
2019-04-22T01:46:08.520Z,11.31
2019-04-22T01:48:39.402Z,11.31
2019-04-22T01:51:08.201Z,11.30
2019-04-22T01:53:42.489Z,11.28
2019-04-22T01:56:05.731Z,11.30
2019-04-22T01:58:33.274Z,11.29
2019-04-22T02:01:09.812Z,11.26
2019-04-22T02:03:40.067Z,11.21
2019-04-22T02:06:17.889Z,11.21
2019-04-22T02:08:45.172Z,11.22
2019-04-22T02:11:07.762Z,11.21
2019-04-22T02:13:47.095Z,11.19
2019-04-22T02:16:15.141Z,11.19
2019-04-22T02:18:44.857Z,11.20
2019-04-22T02:21:07.327Z,11.19
2019-04-22T02:23:47.317Z,11.21
2019-04-22T02:26:23.795Z,11.19
2019-04-22T02:31:25.961Z,11.11
2019-04-22T02:41:23.277Z,11.09
2019-04-22T02:47:12.024Z,11.01
2019-04-22T02:51:16.948Z,10.95
2019-04-22T02:54:15.182Z,10.94
2019-04-22T02:58:58.707Z,10.93
2019-04-22T03:01:27.498Z,10.91
2019-04-22T03:04:01.565Z,10.86
2019-04-22T03:08:45.977Z,10.80
2019-04-22T03:11:18.630Z,10.77
2019-04-22T03:18:55.003Z,10.66
2019-04-22T03:21:18.472Z,10.66
2019-04-22T03:23:56.436Z,10.63
2019-04-22T03:26:22.702Z,10.58
2019-04-22T03:31:54.924Z,10.48
2019-04-22T03:34:38.307Z,10.44
2019-04-22T03:41:41.293Z,10.39
2019-04-22T03:46:34.788Z,10.39
2019-04-22T03:49:12.814Z,10.42
2019-04-22T03:51:38.889Z,10.42
2019-04-22T03:54:11.160Z,10.41
2019-04-22T03:56:57.232Z,10.40
2019-04-22T03:59:07.591Z,10.42
2019-04-22T04:01:37.024Z,10.42
2019-04-22T04:04:09.821Z,10.40
2019-04-22T04:06:41.555Z,10.39
2019-04-22T04:09:01.537Z,10.37
2019-04-22T04:11:32.101Z,10.38
2019-04-22T04:14:01.243Z,10.41
2019-04-22T04:16:30.428Z,10.44
2019-04-22T04:24:11.178Z,10.51
2019-04-22T04:36:35.513Z,10.67
2019-04-22T04:39:01.030Z,10.73
2019-04-22T04:44:05.799Z,11.24
2019-04-22T04:46:39.984Z,12.26
2019-04-22T04:49:07.542Z,13.24
2019-04-22T04:51:33.755Z,14.12
2019-04-22T04:54:08.652Z,14.81
2019-04-22T04:56:36.045Z,15.45
2019-04-22T04:59:05.638Z,16.09
2019-04-22T05:01:30.838Z,16.66
2019-04-22T05:06:37.835Z,17.72
2019-04-22T05:09:11.785Z,18.20
2019-04-22T05:11:42.922Z,18.58
2019-04-22T05:14:05.438Z,18.92
2019-04-22T05:19:02.377Z,19.20
2019-04-22T05:23:53.099Z,18.81
2019-04-22T05:26:27.734Z,19.41
2019-04-22T05:28:49.985Z,19.88
2019-04-22T05:31:23.635Z,20.10
2019-04-22T05:33:50.482Z,20.19
2019-04-22T05:36:20.332Z,20.21
2019-04-22T05:38:53.662Z,20.28
2019-04-22T05:41:27.222Z,20.47
2019-04-22T05:43:50.320Z,20.71
2019-04-22T05:46:22.361Z,20.80
2019-04-22T05:48:53.908Z,20.81
2019-04-22T05:51:25.750Z,20.59
2019-04-22T05:53:59.365Z,20.48
2019-04-22T05:56:28.169Z,20.32
2019-04-22T06:04:00.383Z,19.50
2019-04-22T06:06:18.099Z,19.38
2019-04-22T06:08:50.968Z,18.96
2019-04-22T06:11:28.366Z,18.56
2019-04-22T06:13:46.862Z,18.22
2019-04-22T06:16:26.369Z,17.72
2019-04-22T06:19:01.058Z,17.05
2019-04-22T06:21:30.818Z,16.71
2019-04-22T06:23:58.160Z,16.55
2019-04-22T06:26:31.241Z,16.42
2019-04-22T06:28:56.877Z,16.40
2019-04-22T06:31:28.182Z,16.42
2019-04-22T06:33:57.967Z,16.36
2019-04-22T06:36:27.585Z,16.35
2019-04-22T06:38:55.651Z,16.32
2019-04-22T06:41:31.761Z,16.36
2019-04-22T06:43:59.798Z,16.35
2019-04-22T06:48:52.824Z,16.32
2019-04-22T06:51:22.746Z,16.26
2019-04-22T06:53:48.039Z,16.23
2019-04-22T06:56:22.340Z,16.21
2019-04-22T06:58:52.400Z,16.29
2019-04-22T07:01:27.652Z,16.37
2019-04-22T07:04:03.334Z,16.38
2019-04-22T07:06:26.217Z,16.44
2019-04-22T07:09:14.061Z,16.54
2019-04-22T07:11:20.262Z,16.75
2019-04-22T07:13:57.332Z,16.94
2019-04-22T07:16:25.092Z,17.04
2019-04-22T07:21:22.208Z,17.10
2019-04-22T07:24:05.608Z,17.19
2019-04-22T07:26:21.666Z,17.19
2019-04-22T07:28:49.159Z,17.21
2019-04-22T07:31:20.825Z,17.21
2019-04-22T07:33:55.534Z,17.26
2019-04-22T07:38:50.778Z,17.41
2019-04-22T07:41:25.576Z,17.48
2019-04-22T07:44:10.326Z,17.51
2019-04-22T07:46:19.809Z,17.61
2019-04-22T07:48:52.632Z,17.76
2019-04-22T07:51:36.647Z,17.86
2019-04-22T07:53:56.287Z,17.95
2019-04-22T07:56:24.298Z,18.02
2019-04-22T07:58:58.789Z,18.09
2019-04-22T08:01:37.458Z,18.13
2019-04-22T08:04:16.038Z,18.08
2019-04-22T08:06:23.396Z,18.08
2019-04-22T08:09:00.421Z,18.14
2019-04-22T08:13:55.277Z,18.31
2019-04-22T08:16:25.105Z,18.40
2019-04-22T08:18:54.021Z,18.43
2019-04-22T08:21:23.770Z,18.45
2019-04-22T08:23:56.926Z,18.47
2019-04-22T08:26:27.354Z,18.51
2019-04-22T08:29:03.427Z,18.45
2019-04-22T08:31:31.639Z,18.44
2019-04-22T08:33:55.683Z,18.50
2019-04-22T08:36:26.028Z,18.63
2019-04-22T08:51:28.161Z,18.61
2019-04-22T08:53:59.850Z,18.72
2019-04-22T08:59:02.053Z,18.91
2019-04-22T09:01:30.086Z,19.01
2019-04-22T09:03:58.139Z,19.05
2019-04-22T09:09:01.940Z,19.06
2019-04-22T09:11:35.522Z,19.04
2019-04-22T09:16:33.374Z,19.00
2019-04-22T09:18:59.254Z,18.99
2019-04-22T09:24:00.751Z,19.08
2019-04-22T09:26:34.727Z,19.02
2019-04-22T09:29:03.279Z,18.99
2019-04-22T09:31:23.564Z,18.97
2019-04-22T09:33:53.656Z,19.07
2019-04-22T09:36:37.180Z,19.12
2019-04-22T09:38:53.028Z,19.15
2019-04-22T09:41:33.410Z,19.19
2019-04-22T09:43:56.728Z,19.26
2019-04-22T09:46:32.151Z,19.23
2019-04-22T09:51:25.738Z,19.27
2019-04-22T09:56:31.898Z,19.33
2019-04-22T09:59:01.213Z,19.41
2019-04-22T10:01:32.103Z,19.49
2019-04-22T10:06:33.323Z,19.65
2019-04-22T10:09:12.753Z,19.72
2019-04-22T10:14:01.106Z,19.84
2019-04-22T10:16:31.185Z,19.93
2019-04-22T10:18:59.469Z,19.99
2019-04-22T10:21:35.304Z,19.99
2019-04-22T10:23:59.872Z,19.95
2019-04-22T10:26:35.182Z,19.94
2019-04-22T10:29:00.868Z,19.96
2019-04-22T10:31:34.501Z,20.02
2019-04-22T10:33:49.605Z,20.00
2019-04-22T10:36:05.680Z,20.01
2019-04-22T10:38:34.635Z,19.98
2019-04-22T10:41:02.883Z,20.09
2019-04-22T10:43:32.823Z,20.17
2019-04-22T10:46:02.088Z,20.20
2019-04-22T10:48:30.384Z,20.21
2019-04-22T10:50:58.932Z,20.24
2019-04-22T10:53:27.244Z,20.21
2019-04-22T10:55:56.410Z,20.28
2019-04-22T10:58:24.959Z,20.36
2019-04-22T11:00:54.359Z,20.45
2019-04-22T11:03:24.517Z,20.53
2019-04-22T11:05:54.206Z,20.55
2019-04-22T11:08:31.962Z,20.63
2019-04-22T11:11:07.155Z,20.67
2019-04-22T11:13:22.382Z,20.62
2019-04-22T11:15:50.983Z,20.65
2019-04-22T11:18:19.824Z,20.70
2019-04-22T11:20:49.367Z,20.65
2019-04-22T11:23:18.649Z,20.56
2019-04-22T11:25:47.984Z,20.52
2019-04-22T11:28:17.805Z,20.58
2019-04-22T11:30:46.363Z,20.64
2019-04-22T11:33:14.567Z,20.63
2019-04-22T11:35:43.794Z,20.59
2019-04-22T11:38:13.019Z,20.61
2019-04-22T11:40:47.489Z,20.60
2019-04-22T11:43:12.394Z,20.58
2019-04-22T11:45:41.560Z,20.56
2019-04-22T11:48:11.167Z,20.57
2019-04-22T11:50:40.104Z,20.64
2019-04-22T11:53:09.048Z,20.62
2019-04-22T11:55:37.330Z,20.56
2019-04-22T11:58:06.733Z,20.48
2019-04-22T12:00:36.985Z,20.45
2019-04-22T12:03:05.459Z,20.48
2019-04-22T12:05:34.309Z,20.48
2019-04-22T12:08:03.012Z,20.48
2019-04-22T12:10:38.463Z,20.51
2019-04-22T12:13:02.145Z,20.53
2019-04-22T12:15:31.160Z,20.50
2019-04-22T12:17:59.685Z,20.48
2019-04-22T12:20:29.398Z,20.47
2019-04-22T12:22:58.958Z,20.52
2019-04-22T12:25:38.956Z,20.58
2019-04-22T12:27:57.260Z,20.62
2019-04-22T12:30:25.756Z,20.67
2019-04-22T12:32:54.642Z,20.70
2019-04-22T12:35:24.193Z,20.77
2019-04-22T12:37:57.580Z,20.82
2019-04-22T12:40:34.110Z,20.85
2019-04-22T12:42:53.468Z,20.85
2019-04-22T12:45:22.439Z,20.91
2019-04-22T12:47:51.656Z,20.97
2019-04-22T12:50:26.079Z,20.93
2019-04-22T12:52:55.392Z,20.88
2019-04-22T12:55:19.813Z,20.86
2019-04-22T12:57:48.551Z,20.84
2019-04-22T13:00:17.767Z,20.82
2019-04-22T13:02:47.295Z,20.86
2019-04-22T13:05:16.307Z,20.92
2019-04-22T13:07:44.554Z,20.99
2019-04-22T13:10:13.843Z,21.05
2019-04-22T13:12:42.800Z,21.08
2019-04-22T13:15:16.006Z,21.03
2019-04-22T13:17:44.420Z,20.96
2019-04-22T13:20:15.100Z,20.95
2019-04-22T13:22:43.215Z,21.02
2019-04-22T13:25:12.404Z,21.05
2019-04-22T13:27:40.787Z,21.01
2019-04-22T13:30:12.401Z,20.98
2019-04-22T13:32:40.781Z,20.97
2019-04-22T13:35:10.878Z,20.98
2019-04-22T13:37:39.157Z,21.00
2019-04-22T13:40:08.408Z,20.97
2019-04-22T13:42:37.514Z,20.97
2019-04-22T13:45:09.680Z,20.96
2019-04-22T13:47:57.073Z,20.94
2019-04-22T13:53:26.216Z,20.89
2019-04-22T13:54:14.080Z,20.95
2019-04-22T13:55:41.979Z,20.86
2019-04-22T13:57:52.951Z,20.87
2019-04-22T14:00:14.079Z,20.85
2019-04-22T14:02:44.623Z,20.84
2019-04-22T14:05:14.992Z,20.88
2019-04-22T14:07:43.521Z,20.92
2019-04-22T14:10:12.286Z,20.92
2019-04-22T14:12:40.609Z,20.84
2019-04-22T14:15:09.875Z,20.80
2019-04-22T14:17:39.046Z,20.81
2019-04-22T14:20:08.866Z,20.79
2019-04-22T14:22:38.799Z,20.69
2019-04-22T14:25:07.262Z,20.65
2019-04-22T14:27:47.931Z,20.63
2019-04-22T14:30:10.604Z,20.64
2019-04-22T14:32:39.959Z,20.66
2019-04-22T14:35:11.202Z,20.67
2019-04-22T14:37:40.294Z,20.66
2019-04-22T14:40:09.476Z,20.65
2019-04-22T14:42:59.010Z,20.67
2019-04-22T14:45:42.578Z,20.67
2019-04-22T14:48:09.362Z,20.68
2019-04-22T14:50:29.304Z,20.67
2019-04-22T14:52:58.317Z,20.69
2019-04-22T14:55:15.683Z,20.74
2019-04-22T14:57:40.403Z,20.73
2019-04-22T15:00:13.703Z,20.71
2019-04-22T15:02:41.909Z,20.67
2019-04-22T15:05:12.155Z,20.68
2019-04-22T15:07:41.245Z,20.70
2019-04-22T15:10:10.261Z,20.70
2019-04-22T15:12:45.723Z,20.69
2019-04-22T15:15:27.182Z,20.67
2019-04-22T15:18:13.432Z,20.64
2019-04-22T15:20:43.815Z,20.54
2019-04-22T15:23:12.742Z,20.45
2019-04-22T15:25:41.288Z,20.42
2019-04-22T15:28:09.506Z,20.43
2019-04-22T15:30:37.715Z,20.42
2019-04-22T15:33:07.368Z,20.37
2019-04-22T15:35:35.653Z,20.32
2019-04-22T15:38:04.770Z,20.29
2019-04-22T15:40:34.429Z,20.31
2019-04-22T15:43:04.611Z,20.30
2019-04-22T15:45:33.005Z,20.26
2019-04-22T15:48:02.099Z,20.22
2019-04-22T15:50:31.012Z,20.18
2019-04-22T15:53:02.530Z,20.13
2019-04-22T15:55:29.456Z,20.13
2019-04-22T15:57:57.717Z,20.12
2019-04-22T16:00:40.780Z,20.08
2019-04-22T16:02:57.271Z,20.06
2019-04-22T16:05:25.737Z,20.04
2019-04-22T16:07:55.002Z,20.01
2019-04-22T16:10:23.962Z,19.99
2019-04-22T16:13:02.743Z,19.97
2019-04-22T16:15:22.575Z,19.93
2019-04-22T16:17:50.861Z,19.94
2019-04-22T16:20:19.341Z,19.92
2019-04-22T16:23:05.644Z,19.92
2019-04-22T16:25:45.353Z,19.90
2019-04-22T16:28:15.235Z,19.87
2019-04-22T16:30:43.722Z,19.86
2019-04-22T16:33:13.179Z,19.84
2019-04-22T16:35:42.674Z,19.82
2019-04-22T16:38:11.069Z,19.79
2019-04-22T16:40:40.570Z,19.77
2019-04-22T16:43:11.962Z,19.74
2019-04-22T16:45:40.194Z,19.70
2019-04-22T16:48:09.384Z,19.64
2019-04-22T16:50:39.950Z,19.59
2019-04-22T16:53:08.267Z,19.54
2019-04-22T16:55:36.989Z,19.51
2019-04-22T16:58:05.388Z,19.48
2019-04-22T17:00:34.393Z,19.46
2019-04-22T17:03:20.566Z,19.44
2019-04-22T17:06:09.855Z,19.41
2019-04-22T17:08:39.019Z,19.35
2019-04-22T17:11:07.590Z,19.31
2019-04-22T17:13:36.642Z,19.26
2019-04-22T17:16:07.026Z,19.19
2019-04-22T17:18:37.206Z,19.13
2019-04-22T17:21:08.475Z,19.07
2019-04-22T17:23:37.907Z,19.03
2019-04-22T17:26:06.343Z,18.99
2019-04-22T17:28:35.478Z,18.94
2019-04-22T17:31:04.898Z,18.89
2019-04-22T17:33:33.079Z,18.84
2019-04-22T17:36:01.303Z,18.80
2019-04-22T17:38:40.786Z,18.75
2019-04-22T17:41:11.504Z,18.72
2019-04-22T17:43:54.243Z,18.67
2019-04-22T17:46:21.978Z,18.64
2019-04-22T17:48:53.492Z,18.61
2019-04-22T17:53:58.002Z,18.47
2019-04-22T17:56:27.868Z,18.42
2019-04-22T17:58:57.146Z,18.37
2019-04-22T18:01:29.262Z,18.31
2019-04-22T18:03:42.351Z,18.27
2019-04-22T18:06:17.594Z,18.15
2019-04-22T18:08:54.976Z,18.08
2019-04-22T18:11:33.489Z,18.02
2019-04-22T18:14:01.718Z,17.96
2019-04-22T18:16:32.637Z,17.88
2019-04-22T18:19:00.270Z,17.84
2019-04-22T18:21:25.682Z,17.81
2019-04-22T18:23:51.960Z,17.78
2019-04-22T18:26:24.580Z,17.72
2019-04-22T18:28:58.381Z,17.64
2019-04-22T18:31:19.829Z,17.56
2019-04-22T18:33:50.395Z,17.54
2019-04-22T18:36:27.784Z,17.48
2019-04-22T18:41:22.392Z,17.36
2019-04-22T18:44:01.862Z,17.27
2019-04-22T18:46:28.848Z,17.24
2019-04-22T18:48:58.153Z,17.20
2019-04-22T18:54:06.171Z,17.16
2019-04-22T18:56:41.904Z,17.10
2019-04-22T18:59:01.183Z,17.07
2019-04-22T19:01:20.061Z,17.04
2019-04-22T19:03:58.200Z,16.98
2019-04-22T19:06:56.156Z,16.93
2019-04-22T19:09:10.571Z,16.87
2019-04-22T19:11:44.820Z,16.81
2019-04-22T19:14:10.175Z,16.80
2019-04-22T19:16:39.960Z,16.75
2019-04-22T19:19:30.427Z,16.63
2019-04-22T19:21:43.313Z,16.63
2019-04-22T19:24:09.029Z,16.49
2019-04-22T19:26:49.988Z,16.49
2019-04-22T19:29:12.336Z,16.45
2019-04-22T19:31:43.709Z,16.45
2019-04-22T19:34:09.308Z,16.41
2019-04-22T19:36:46.967Z,16.36
2019-04-22T19:39:10.492Z,16.30
2019-04-22T19:41:42.207Z,16.22
2019-04-22T19:44:14.544Z,16.18
2019-04-22T19:46:42.399Z,16.11
2019-04-22T19:49:16.787Z,16.06
2019-04-22T19:51:56.030Z,16.01
2019-04-22T19:54:14.104Z,15.93
2019-04-22T19:56:36.676Z,15.85
2019-04-22T19:59:09.745Z,15.80
2019-04-22T20:01:47.168Z,15.74
2019-04-22T20:04:28.332Z,15.67
2019-04-22T20:06:53.430Z,15.56
2019-04-22T20:09:26.984Z,15.50
2019-04-22T20:11:50.128Z,15.39
2019-04-22T20:14:21.783Z,15.30
2019-04-22T20:16:48.946Z,15.26
2019-04-22T20:19:33.779Z,15.21
2019-04-22T20:21:51.528Z,15.20
2019-04-22T20:24:12.044Z,15.17
2019-04-22T20:26:56.504Z,15.11
2019-04-22T20:29:27.096Z,15.04
2019-04-22T20:31:54.590Z,14.95
2019-04-22T20:34:23.949Z,14.93
2019-04-22T20:39:31.950Z,14.87
2019-04-22T20:41:57.728Z,14.87
2019-04-22T20:44:29.151Z,14.81
2019-04-22T20:46:56.250Z,14.77
2019-04-22T20:49:30.886Z,14.70
2019-04-22T20:52:06.259Z,14.63
2019-04-22T20:54:22.723Z,14.57
2019-04-22T20:56:51.962Z,14.52
2019-04-22T20:59:25.662Z,14.54
2019-04-22T21:01:55.236Z,14.47
2019-04-22T21:04:19.787Z,14.44
2019-04-22T21:06:51.547Z,14.41
2019-04-22T21:09:32.250Z,14.39
2019-04-22T21:11:53.604Z,14.35
2019-04-22T21:14:24.607Z,14.31
2019-04-22T21:17:00.773Z,14.24
2019-04-22T21:19:35.434Z,14.23
2019-04-22T21:22:03.576Z,13.63
2019-04-22T21:24:29.626Z,14.14
2019-04-22T21:27:08.959Z,14.12
2019-04-22T21:29:29.503Z,14.11
2019-04-22T21:32:03.077Z,14.06
2019-04-22T21:34:24.803Z,14.05
2019-04-22T21:37:12.086Z,14.03
2019-04-22T21:39:28.979Z,13.97
2019-04-22T21:42:03.419Z,13.95
2019-04-22T21:44:32.624Z,13.93
2019-04-22T21:47:09.114Z,13.90
2019-04-22T21:49:35.887Z,13.89
2019-04-22T21:52:00.191Z,13.86
2019-04-22T21:54:33.987Z,13.84
2019-04-22T21:59:43.330Z,13.76
2019-04-22T22:02:13.301Z,13.72
2019-04-22T22:04:38.400Z,13.68
2019-04-22T22:06:59.898Z,13.69
2019-04-22T22:09:43.979Z,13.65
2019-04-22T22:12:08.532Z,13.63
2019-04-22T22:14:42.039Z,13.62
2019-04-22T22:17:14.071Z,13.62
2019-04-22T22:19:45.521Z,13.63
2019-04-22T22:22:28.483Z,13.60
2019-04-22T22:24:46.330Z,13.61
2019-04-22T22:27:16.723Z,13.60
2019-04-22T22:29:57.036Z,13.58
2019-04-22T22:32:16.537Z,13.57
2019-04-22T22:34:45.628Z,13.52
2019-04-22T22:37:07.698Z,13.53
2019-04-22T22:39:36.669Z,13.54
2019-04-22T22:41:54.129Z,13.54
2019-04-22T22:44:29.983Z,13.53
2019-04-22T22:47:08.647Z,13.53
2019-04-22T22:49:49.844Z,13.51
2019-04-22T22:52:36.474Z,13.52
2019-04-22T22:54:49.147Z,13.53
2019-04-22T22:59:44.127Z,13.45
2019-04-22T23:02:12.225Z,13.43
2019-04-22T23:04:45.937Z,13.44
2019-04-22T23:07:19.294Z,13.45
2019-04-22T23:09:47.881Z,13.42
2019-04-22T23:12:25.168Z,13.41
2019-04-22T23:14:45.027Z,13.39
2019-04-22T23:17:01.184Z,13.36
2019-04-22T23:19:23.896Z,13.33
2019-04-22T23:21:57.889Z,13.34
2019-04-22T23:24:58.183Z,13.33
2019-04-22T23:27:27.314Z,13.26
2019-04-22T23:30:04.186Z,13.23
2019-04-22T23:32:34.818Z,13.19
2019-04-22T23:35:15.373Z,13.15
2019-04-22T23:37:46.426Z,13.17
2019-04-22T23:40:27.659Z,13.18
2019-04-22T23:42:44.899Z,13.14
2019-04-22T23:45:13.935Z,13.13
2019-04-22T23:47:35.649Z,13.08
2019-04-22T23:50:18.460Z,13.09
2019-04-22T23:52:48.087Z,13.05
2019-04-22T23:55:17.853Z,13.03
2019-04-22T23:57:47.109Z,13.05
